Main page
METAR-TAF:

METAR-TAF

Airports :

Guilin Liangjiang International Airport

Guilin, China

latitude: 25-20N, longitude: 110-18E, elevation: 166 m

Current weather observation

The report was made 28 minutes ago, at 23:00 UTC
Wind 2 kt from variable directions
Temperature 5°C
Humidity 93%
Pressure 1027 hPa
Visibility: 4500 m
mist

METAR: ZGKL 212300Z VRB01MPS 4500 BR NSC 05/04 Q1027 NOSIG

Time: 07:28 (23:28 UTC)

Forecast

The report was made 8 hours and 18 minutes ago, at 15:10 UTC
Forecast valid from 21 at 18 UTC to 22 at 18 UTC
Wind 6 kt from the Northeast
Visibility: 3500 m
mist
Becoming
from 21 at 20 UTC to 21 at 21 UTC
Visibility: 2200 m
Becoming
from 22 at 00 UTC to 22 at 01 UTC
Visibility: 3500 m

TAF: ZGKL 211510Z 2118/2218 05003MPS 3500 BR NSC TX15/2208Z TN03/2123Z BECMG 2120/2121 2200 BECMG 2200/2201 3500

Weather observations and forecasts of more than 4000 airports (METAR and TAF reports).

The available stations are represented by yellow and red dots on the map.

Hover mouse over dot to see the name of the station.

Then click to see weather observations and forecasts.

To change the map : click on the green buttons with a black cross to zoom in, on the green button with a dash to zoom out, or on the green arrows for adjacent maps.


METAR-TAF: